createdAt,value
2022-09-17T00:01:34.852Z,3.50
2022-09-17T00:04:04.652Z,3.47
2022-09-17T00:06:35.320Z,4.07
2022-09-17T00:09:06.790Z,4.90
2022-09-17T00:11:38.946Z,4.47
2022-09-17T00:14:09.382Z,4.20
2022-09-17T00:16:40.566Z,3.28
2022-09-17T00:19:14.488Z,4.55
2022-09-17T00:21:43.232Z,4.73
2022-09-17T00:24:15.026Z,3.57
2022-09-17T00:26:44.029Z,3.50
2022-09-17T00:29:12.833Z,3.57
2022-09-17T00:31:41.637Z,4.13
2022-09-17T00:34:10.213Z,3.13
2022-09-17T00:36:39.527Z,3.43
2022-09-17T00:39:15.542Z,3.50
2022-09-17T00:41:44.653Z,2.97
2022-09-17T00:44:42.681Z,4.50
2022-09-17T00:47:22.854Z,3.00
2022-09-17T00:49:55.195Z,3.58
2022-09-17T00:52:30.518Z,3.37
2022-09-17T00:55:06.745Z,2.77
2022-09-17T00:57:35.436Z,3.80
2022-09-17T01:00:05.097Z,3.67
2022-09-17T01:02:33.858Z,3.83
2022-09-17T01:05:02.558Z,3.28
2022-09-17T01:07:44.303Z,4.07
2022-09-17T01:10:25.958Z,4.30
2022-09-17T01:13:07.432Z,3.17
2022-09-17T01:15:41.457Z,2.80
2022-09-17T01:18:22.738Z,4.45
2022-09-17T01:21:20.436Z,2.30
2022-09-17T01:24:19.424Z,3.70
2022-09-17T01:27:15.324Z,3.77
2022-09-17T01:30:00.820Z,3.38
2022-09-17T01:32:37.721Z,3.73
2022-09-17T01:35:13.426Z,3.43
2022-09-17T01:37:48.496Z,2.83
2022-09-17T01:40:24.811Z,2.93
2022-09-17T01:42:59.113Z,4.57
2022-09-17T01:45:32.297Z,3.83
2022-09-17T01:48:05.969Z,4.07
2022-09-17T01:50:40.635Z,3.67
2022-09-17T01:53:11.413Z,2.87
2022-09-17T01:55:41.736Z,3.57
2022-09-17T01:58:15.437Z,3.57
2022-09-17T02:00:48.850Z,4.63
2022-09-17T02:03:23.927Z,3.53
2022-09-17T02:05:57.762Z,4.67
2022-09-17T02:08:28.694Z,3.87
2022-09-17T02:11:00.462Z,3.57
2022-09-17T02:13:33.767Z,3.07
2022-09-17T02:16:06.946Z,5.73
2022-09-17T02:18:41.709Z,3.87
2022-09-17T02:21:15.608Z,3.40
2022-09-17T02:23:49.404Z,5.03
2022-09-17T02:26:21.464Z,3.77
2022-09-17T02:28:52.676Z,4.33
2022-09-17T02:31:20.986Z,4.57
2022-09-17T02:33:53.977Z,4.03
2022-09-17T02:36:24.341Z,4.53
2022-09-17T02:39:01.668Z,2.87
2022-09-17T02:41:40.874Z,3.20
2022-09-17T02:44:18.861Z,3.97
2022-09-17T02:47:02.544Z,3.40
2022-09-17T02:49:50.223Z,3.77
2022-09-17T02:52:28.232Z,4.93
2022-09-17T02:55:03.402Z,4.60
2022-09-17T02:57:38.900Z,3.67
2022-09-17T03:00:12.035Z,3.33
2022-09-17T03:02:44.466Z,3.53
2022-09-17T03:05:15.486Z,4.77
2022-09-17T03:07:43.971Z,4.40
2022-09-17T03:10:12.905Z,3.90
2022-09-17T03:12:41.133Z,3.60
2022-09-17T03:15:10.408Z,4.37
2022-09-17T03:17:38.882Z,3.73
2022-09-17T03:20:07.751Z,5.30
2022-09-17T03:22:37.364Z,4.70
2022-09-17T03:25:06.369Z,4.03
2022-09-17T03:27:34.683Z,4.73
2022-09-17T03:30:02.985Z,4.67
2022-09-17T03:32:31.144Z,3.97
2022-09-17T03:35:00.388Z,3.43
2022-09-17T03:37:32.894Z,3.93
2022-09-17T03:40:03.255Z,4.40
2022-09-17T03:42:31.709Z,5.03
2022-09-17T03:44:59.876Z,3.93
2022-09-17T03:47:28.017Z,3.90
2022-09-17T03:49:56.562Z,5.03
2022-09-17T03:52:24.651Z,4.80
2022-09-17T03:54:53.060Z,3.50
2022-09-17T03:57:23.126Z,3.93
2022-09-17T03:59:51.280Z,3.23
2022-09-17T04:02:19.428Z,3.73
2022-09-17T04:04:48.209Z,3.23
2022-09-17T04:07:16.281Z,3.57
2022-09-17T04:09:44.331Z,4.33
2022-09-17T04:12:12.863Z,3.90
2022-09-17T04:14:42.291Z,4.07
2022-09-17T04:17:10.376Z,3.53
2022-09-17T04:19:38.767Z,3.33
2022-09-17T04:22:06.929Z,3.43
2022-09-17T04:24:35.036Z,4.13
2022-09-17T04:27:03.271Z,3.60
2022-09-17T04:29:31.434Z,3.40
2022-09-17T04:32:00.995Z,4.10
2022-09-17T04:34:29.393Z,3.60
2022-09-17T04:36:57.610Z,4.23
2022-09-17T04:39:25.910Z,4.20
2022-09-17T04:41:54.299Z,4.50
2022-09-17T04:44:22.411Z,3.53
2022-09-17T04:46:50.657Z,3.47
2022-09-17T04:49:20.383Z,3.20
2022-09-17T04:51:48.774Z,3.70
2022-09-17T04:54:16.864Z,4.00
2022-09-17T04:56:45.147Z,3.73
2022-09-17T04:59:13.277Z,4.33
2022-09-17T05:01:41.407Z,3.87
2022-09-17T05:04:09.836Z,5.43
2022-09-17T05:06:39.294Z,2.93
2022-09-17T05:09:07.510Z,4.63
2022-09-17T05:11:35.955Z,4.83
2022-09-17T05:14:04.219Z,4.90
2022-09-17T05:16:32.306Z,4.07
2022-09-17T05:19:00.718Z,5.53
2022-09-17T05:21:29.396Z,3.90
2022-09-17T05:23:58.798Z,4.90
2022-09-17T05:26:27.096Z,4.83
2022-09-17T05:28:55.183Z,4.53
2022-09-17T05:31:23.418Z,5.27
2022-09-17T05:33:51.751Z,4.43
2022-09-17T05:36:19.835Z,5.57
2022-09-17T05:38:48.012Z,3.90
2022-09-17T05:41:17.660Z,5.10
2022-09-17T05:43:46.249Z,5.47
2022-09-17T05:46:14.344Z,3.83
2022-09-17T05:48:43.615Z,4.50
2022-09-17T05:51:11.844Z,5.47
2022-09-17T05:53:40.130Z,5.43
2022-09-17T05:56:08.398Z,3.43
2022-09-17T05:58:38.048Z,4.90
2022-09-17T06:01:06.497Z,4.53
2022-09-17T06:03:34.915Z,3.93
2022-09-17T06:06:03.010Z,4.10
2022-09-17T06:08:31.202Z,3.30
2022-09-17T06:11:02.449Z,4.53
2022-09-17T06:13:31.542Z,4.30
2022-09-17T06:16:01.883Z,2.33
2022-09-17T06:18:31.108Z,3.50
2022-09-17T06:21:01.287Z,3.20
2022-09-17T06:23:35.219Z,4.07
2022-09-17T06:26:06.835Z,3.43
2022-09-17T06:28:41.282Z,4.67
2022-09-17T06:31:13.290Z,3.20
2022-09-17T06:33:42.068Z,3.30
2022-09-17T06:36:14.376Z,3.70
2022-09-17T06:38:43.440Z,4.27
2022-09-17T06:41:12.425Z,3.57
2022-09-17T06:43:40.491Z,3.60
2022-09-17T06:46:09.266Z,3.77
2022-09-17T06:48:39.906Z,3.43
2022-09-17T06:51:09.950Z,4.13
2022-09-17T06:53:39.130Z,3.93
2022-09-17T06:56:09.285Z,3.23
2022-09-17T06:58:38.381Z,4.00
2022-09-17T07:01:07.499Z,4.77
2022-09-17T07:03:35.929Z,4.57
2022-09-17T07:06:09.307Z,5.40
2022-09-17T07:08:37.813Z,4.20
2022-09-17T07:11:06.438Z,4.17
2022-09-17T07:13:34.745Z,3.63
2022-09-17T07:16:05.289Z,4.63
2022-09-17T07:18:33.689Z,5.43
2022-09-17T07:21:03.783Z,5.50
2022-09-17T07:23:35.292Z,5.50
2022-09-17T07:26:04.976Z,6.20
2022-09-17T07:28:33.451Z,5.80
2022-09-17T07:31:04.877Z,6.10
2022-09-17T07:33:33.293Z,7.73
2022-09-17T07:36:03.305Z,6.20
2022-09-17T07:38:34.124Z,6.20
2022-09-17T07:41:03.676Z,6.90
2022-09-17T07:43:33.743Z,7.33
2022-09-17T07:46:04.705Z,6.33
2022-09-17T07:48:33.760Z,7.23
2022-09-17T07:51:02.036Z,7.50
2022-09-17T07:53:30.538Z,6.00
2022-09-17T07:56:01.387Z,7.13
2022-09-17T07:58:31.537Z,7.20
2022-09-17T08:01:03.870Z,6.13
2022-09-17T08:03:32.197Z,6.70
2022-09-17T08:06:04.798Z,6.90
2022-09-17T08:08:34.128Z,21.03
2022-09-17T08:11:05.274Z,15.03
2022-09-17T08:13:33.852Z,11.47
2022-09-17T08:16:03.042Z,10.60
2022-09-17T08:18:31.516Z,7.63
2022-09-17T08:21:00.348Z,7.03
2022-09-17T08:23:30.197Z,7.60
2022-09-17T08:26:00.828Z,6.87
2022-09-17T08:28:32.559Z,5.93
2022-09-17T08:31:02.925Z,6.30
2022-09-17T08:33:33.348Z,5.60
2022-09-17T08:36:02.357Z,5.20
2022-09-17T08:38:37.191Z,5.13
2022-09-17T08:41:20.649Z,4.68
2022-09-17T08:43:59.233Z,5.10
2022-09-17T08:46:28.988Z,5.37
2022-09-17T08:49:06.093Z,3.85
2022-09-17T08:51:53.271Z,4.50
2022-09-17T08:54:30.244Z,4.03
2022-09-17T08:57:12.351Z,4.35
2022-09-17T08:59:51.051Z,4.00
2022-09-17T09:02:33.947Z,4.47
2022-09-17T09:05:06.303Z,3.35
2022-09-17T09:07:42.440Z,4.10
2022-09-17T09:10:17.771Z,3.17
2022-09-17T09:12:47.309Z,3.85
2022-09-17T09:15:38.206Z,3.25
2022-09-17T09:18:19.180Z,3.63
2022-09-17T09:20:53.561Z,2.67
2022-09-17T09:23:30.449Z,3.63
2022-09-17T09:26:07.276Z,3.78
2022-09-17T09:29:04.314Z,2.78
2022-09-17T09:32:03.077Z,3.20
2022-09-17T09:34:35.945Z,3.10
2022-09-17T09:37:14.592Z,3.30
2022-09-17T09:39:46.243Z,3.75
2022-09-17T09:42:23.078Z,3.05
2022-09-17T09:44:51.490Z,3.55
2022-09-17T09:47:32.408Z,3.38
2022-09-17T09:50:13.345Z,2.78
2022-09-17T09:52:58.625Z,3.55
2022-09-17T09:55:48.884Z,2.60
2022-09-17T09:58:28.620Z,3.00
2022-09-17T10:00:57.098Z,2.90
2022-09-17T10:03:32.075Z,3.15
2022-09-17T10:06:03.111Z,2.67
2022-09-17T10:08:37.047Z,3.80
2022-09-17T10:11:08.214Z,3.17
2022-09-17T10:13:37.684Z,3.10
2022-09-17T10:16:18.330Z,5.18
2022-09-17T10:18:49.030Z,2.75
2022-09-17T10:21:22.093Z,4.22
2022-09-17T10:23:51.461Z,3.95
2022-09-17T10:26:26.105Z,3.45
2022-09-17T10:28:56.450Z,4.43
2022-09-17T10:31:24.968Z,4.57
2022-09-17T10:33:58.434Z,3.33
2022-09-17T10:36:40.195Z,3.45
2022-09-17T10:39:34.193Z,2.65
2022-09-17T10:42:04.457Z,2.90
2022-09-17T10:44:34.741Z,4.20
2022-09-17T10:47:06.569Z,3.17
2022-09-17T10:49:42.964Z,3.88
2022-09-17T10:52:15.922Z,3.65
2022-09-17T10:55:11.775Z,3.05
2022-09-17T10:57:54.020Z,3.10
2022-09-17T11:00:23.872Z,3.25
2022-09-17T11:03:26.912Z,3.22
2022-09-17T11:06:18.179Z,3.13
2022-09-17T11:08:56.355Z,2.72
2022-09-17T11:11:38.365Z,2.83
2022-09-17T11:14:21.131Z,3.45
2022-09-17T11:16:59.857Z,3.10
2022-09-17T11:19:40.127Z,2.67
2022-09-17T11:22:20.079Z,3.00
2022-09-17T11:25:16.454Z,3.83
2022-09-17T11:27:56.867Z,4.18
2022-09-17T11:30:27.117Z,3.55
2022-09-17T11:33:46.574Z,4.38
2022-09-17T11:36:18.791Z,4.43
2022-09-17T11:38:50.966Z,2.92
2022-09-17T11:41:22.932Z,3.85
2022-09-17T11:44:07.936Z,3.40
2022-09-17T11:46:41.705Z,3.58
2022-09-17T11:49:14.295Z,3.50
2022-09-17T11:51:48.084Z,3.53
2022-09-17T11:54:23.764Z,4.53
2022-09-17T11:56:54.690Z,3.55
2022-09-17T11:59:31.460Z,3.33
2022-09-17T12:02:04.389Z,3.40
2022-09-17T12:04:42.221Z,4.35
2022-09-17T12:07:20.402Z,3.78
2022-09-17T12:09:56.305Z,3.72
2022-09-17T12:12:48.499Z,3.50
2022-09-17T12:15:21.924Z,2.97
2022-09-17T12:18:20.501Z,2.90
2022-09-17T12:20:49.257Z,3.00
2022-09-17T12:23:23.607Z,3.45
2022-09-17T12:26:02.099Z,2.53
2022-09-17T12:28:36.287Z,3.55
2022-09-17T12:31:11.550Z,2.97
2022-09-17T12:33:43.515Z,3.05
2022-09-17T12:36:28.719Z,3.03
2022-09-17T12:39:27.115Z,2.60
2022-09-17T12:42:07.049Z,3.33
2022-09-17T12:44:52.446Z,3.03
2022-09-17T12:47:47.556Z,2.55
2022-09-17T12:50:21.485Z,2.85
2022-09-17T12:53:09.140Z,3.25
2022-09-17T12:55:50.250Z,2.38
2022-09-17T12:58:31.792Z,3.92
2022-09-17T13:01:04.653Z,2.65
2022-09-17T13:03:38.712Z,3.40
2022-09-17T13:06:43.786Z,2.50
2022-09-17T13:09:44.382Z,2.47
2022-09-17T13:12:26.461Z,3.53
2022-09-17T13:15:26.454Z,2.30
2022-09-17T13:18:22.975Z,2.50
2022-09-17T13:21:02.682Z,3.38
2022-09-17T13:23:35.280Z,3.28
2022-09-17T13:26:06.782Z,3.67
2022-09-17T13:28:44.576Z,2.75
2022-09-17T13:31:21.545Z,3.20
2022-09-17T13:33:56.658Z,2.60
2022-09-17T13:36:46.675Z,2.35
2022-09-17T13:39:50.791Z,2.42
2022-09-17T13:42:28.885Z,2.38
2022-09-17T13:45:08.742Z,3.20
2022-09-17T13:47:49.659Z,1.38
2022-09-17T13:50:28.198Z,1.42
2022-09-17T13:52:59.020Z,2.38
2022-09-17T13:55:36.166Z,3.92
2022-09-17T13:58:08.982Z,3.05
2022-09-17T14:00:55.162Z,1.85
2022-09-17T14:03:57.045Z,3.85
2022-09-17T14:06:50.298Z,2.90
2022-09-17T14:09:39.341Z,3.72
2022-09-17T14:12:41.198Z,3.08
2022-09-17T14:15:32.368Z,3.25
2022-09-17T14:18:02.655Z,3.08
2022-09-17T14:20:35.201Z,3.30
2022-09-17T14:23:04.497Z,2.63
2022-09-17T14:25:41.043Z,3.25
2022-09-17T14:28:17.327Z,2.72
2022-09-17T14:30:46.146Z,3.38
2022-09-17T14:33:18.644Z,3.00
2022-09-17T14:35:51.077Z,2.20
2022-09-17T14:38:24.272Z,2.38
2022-09-17T14:41:01.135Z,3.10
2022-09-17T14:43:37.078Z,3.33
2022-09-17T14:46:07.578Z,3.80
2022-09-17T14:48:37.106Z,3.15
2022-09-17T14:51:32.618Z,1.83
2022-09-17T14:54:18.683Z,2.15
2022-09-17T14:56:56.863Z,3.65
2022-09-17T14:59:34.097Z,2.35
2022-09-17T15:02:02.271Z,2.88
2022-09-17T15:04:31.218Z,3.75
2022-09-17T15:07:12.934Z,2.08
2022-09-17T15:09:41.394Z,3.35
2022-09-17T15:12:09.570Z,3.28
2022-09-17T15:14:39.987Z,3.08
2022-09-17T15:17:14.779Z,3.55
2022-09-17T15:19:48.004Z,2.63
2022-09-17T15:22:21.571Z,3.65
2022-09-17T15:24:54.096Z,2.95
2022-09-17T15:27:25.632Z,2.75
2022-09-17T15:29:58.184Z,3.05
2022-09-17T15:32:26.790Z,2.42
2022-09-17T15:35:21.511Z,3.83
2022-09-17T15:40:42.387Z,4.45
2022-09-17T15:43:19.955Z,2.88
2022-09-17T15:45:48.565Z,3.63
2022-09-17T15:48:35.497Z,2.90
2022-09-17T15:51:06.900Z,4.28
2022-09-17T15:53:37.643Z,3.50
2022-09-17T15:56:08.501Z,3.85
2022-09-17T15:58:54.429Z,3.95
2022-09-17T16:01:55.847Z,4.05
2022-09-17T16:04:29.449Z,4.25
2022-09-17T16:07:27.942Z,3.78
2022-09-17T16:09:59.328Z,3.70
2022-09-17T16:12:29.829Z,3.40
2022-09-17T16:15:00.781Z,5.78
2022-09-17T16:17:44.657Z,4.07
2022-09-17T16:20:17.179Z,5.22
2022-09-17T16:22:47.951Z,5.72
2022-09-17T16:25:18.595Z,5.50
2022-09-17T16:27:51.761Z,7.22
2022-09-17T16:30:21.877Z,5.78
2022-09-17T16:32:50.465Z,6.00
2022-09-17T16:35:20.673Z,5.28
2022-09-17T16:37:52.976Z,4.68
2022-09-17T16:40:24.847Z,5.68
2022-09-17T16:42:53.543Z,5.68
2022-09-17T16:45:25.408Z,6.45
2022-09-17T16:47:56.804Z,6.22
2022-09-17T16:50:25.209Z,6.15
2022-09-17T16:52:54.477Z,5.10
2022-09-17T16:55:24.401Z,7.07
2022-09-17T16:57:52.614Z,5.90
2022-09-17T17:00:21.524Z,7.30
2022-09-17T17:02:54.593Z,5.72
2022-09-17T17:05:23.415Z,5.28
2022-09-17T17:07:51.963Z,4.60
2022-09-17T17:10:20.340Z,11.15
2022-09-17T17:12:50.143Z,17.45
2022-09-17T17:15:18.924Z,10.43
2022-09-17T17:17:47.197Z,7.75
2022-09-17T17:20:16.833Z,4.03
2022-09-17T17:22:45.330Z,5.43
2022-09-17T17:25:15.413Z,6.88
2022-09-17T17:27:44.438Z,3.90
2022-09-17T17:30:17.231Z,5.97
2022-09-17T17:32:50.290Z,5.75
2022-09-17T17:35:18.802Z,4.38
2022-09-17T17:37:48.143Z,3.47
2022-09-17T17:40:16.364Z,4.57
2022-09-17T17:42:47.389Z,3.45
2022-09-17T17:45:17.093Z,4.03
2022-09-17T17:47:45.549Z,5.30
2022-09-17T17:50:15.742Z,2.50
2022-09-17T17:52:48.021Z,3.95
2022-09-17T17:55:17.542Z,4.00
2022-09-17T17:57:45.700Z,3.47
2022-09-17T18:00:17.537Z,4.20
2022-09-17T18:02:46.038Z,3.58
2022-09-17T18:05:14.236Z,5.40
2022-09-17T18:07:42.761Z,3.17
2022-09-17T18:10:11.525Z,5.15
2022-09-17T18:12:39.756Z,4.57
2022-09-17T18:15:08.886Z,6.78
2022-09-17T18:17:39.930Z,4.93
2022-09-17T18:20:09.830Z,3.80
2022-09-17T18:22:38.275Z,4.78
2022-09-17T18:25:07.044Z,4.78
2022-09-17T18:27:35.258Z,4.25
2022-09-17T18:30:03.620Z,5.07
2022-09-17T18:32:31.848Z,4.90
2022-09-17T18:35:01.457Z,4.30
2022-09-17T18:37:29.994Z,3.47
2022-09-17T18:39:59.386Z,4.75
2022-09-17T18:42:28.378Z,5.55
2022-09-17T18:44:56.720Z,4.15
2022-09-17T18:47:24.873Z,4.05
2022-09-17T18:49:53.120Z,4.57
2022-09-17T18:52:22.809Z,5.00
2022-09-17T18:54:50.890Z,5.22
2022-09-17T18:57:19.013Z,6.93
2022-09-17T18:59:47.387Z,4.50
2022-09-17T19:02:15.522Z,6.20
2022-09-17T19:04:43.792Z,7.85
2022-09-17T19:07:12.277Z,7.28
2022-09-17T19:09:41.896Z,4.97
2022-09-17T19:12:10.142Z,7.05
2022-09-17T19:14:38.544Z,4.63
2022-09-17T19:17:06.778Z,6.18
2022-09-17T19:19:34.887Z,7.15
2022-09-17T19:22:03.371Z,6.03
2022-09-17T19:24:31.510Z,6.82
2022-09-17T19:27:01.612Z,7.35
2022-09-17T19:29:29.943Z,7.03
2022-09-17T19:31:58.170Z,5.20
2022-09-17T19:34:26.332Z,4.38
2022-09-17T19:36:54.766Z,4.60
2022-09-17T19:39:23.647Z,4.45
2022-09-17T19:41:51.944Z,3.70
2022-09-17T19:44:23.518Z,5.53
2022-09-17T19:46:53.088Z,4.97
2022-09-17T19:49:21.685Z,5.53
2022-09-17T19:51:49.857Z,5.43
2022-09-17T19:54:17.988Z,4.55
2022-09-17T19:56:46.504Z,6.38
2022-09-17T19:59:14.759Z,5.80
2022-09-17T20:01:49.268Z,5.72
2022-09-17T20:04:18.318Z,5.15
2022-09-17T20:06:46.545Z,4.30
2022-09-17T20:09:14.862Z,5.95
2022-09-17T20:11:43.356Z,5.38
2022-09-17T20:14:12.701Z,6.25
2022-09-17T20:16:41.440Z,5.95
2022-09-17T20:19:16.132Z,3.83
2022-09-17T20:21:44.478Z,4.00
2022-09-17T20:24:13.078Z,4.88
2022-09-17T20:26:41.426Z,5.82
2022-09-17T20:29:10.714Z,6.00
2022-09-17T20:31:39.148Z,6.13
2022-09-17T20:34:07.456Z,4.68
2022-09-17T20:36:37.103Z,5.30
2022-09-17T20:39:12.317Z,6.72
2022-09-17T20:41:43.084Z,4.30
2022-09-17T20:44:11.764Z,5.00
2022-09-17T20:46:40.669Z,4.38
2022-09-17T20:49:08.901Z,4.15
2022-09-17T20:51:38.933Z,4.80
2022-09-17T20:54:08.315Z,4.68
2022-09-17T20:56:37.553Z,5.63
2022-09-17T20:59:14.333Z,5.95
2022-09-17T21:01:44.967Z,4.57
2022-09-17T21:04:16.402Z,6.00
2022-09-17T21:06:47.317Z,4.97
2022-09-17T21:09:16.771Z,5.68
2022-09-17T21:11:45.954Z,5.20
2022-09-17T21:14:15.667Z,5.60
2022-09-17T21:16:44.746Z,4.82
2022-09-17T21:19:14.115Z,4.88
2022-09-17T21:21:42.863Z,5.47
2022-09-17T21:24:12.701Z,4.30
2022-09-17T21:26:40.815Z,5.33
2022-09-17T21:29:10.271Z,5.82
2022-09-17T21:31:39.758Z,6.50
2022-09-17T21:34:10.761Z,6.15
2022-09-17T21:36:40.400Z,4.47
2022-09-17T21:39:14.774Z,5.20
2022-09-17T21:41:43.448Z,5.93
2022-09-17T21:44:12.860Z,5.23
2022-09-17T21:46:42.329Z,4.73
2022-09-17T21:49:11.091Z,6.00
2022-09-17T21:51:41.253Z,4.13
2022-09-17T21:54:12.500Z,5.13
2022-09-17T21:56:40.962Z,5.60
2022-09-17T21:59:11.037Z,5.07
2022-09-17T22:01:41.744Z,4.83
2022-09-17T22:04:12.568Z,5.27
2022-09-17T22:06:42.513Z,5.93
2022-09-17T22:09:17.542Z,5.77
2022-09-17T22:11:46.217Z,5.07
2022-09-17T22:14:19.189Z,5.83
2022-09-17T22:16:48.668Z,6.20
2022-09-17T22:19:18.950Z,5.43
2022-09-17T22:21:48.949Z,5.67
2022-09-17T22:24:20.262Z,7.90
2022-09-17T22:26:55.739Z,5.33
2022-09-17T22:29:25.730Z,4.80
2022-09-17T22:31:54.103Z,6.03
2022-09-17T22:34:23.928Z,5.10
2022-09-17T22:36:52.280Z,4.50
2022-09-17T22:39:23.395Z,4.93
2022-09-17T22:41:51.597Z,4.77
2022-09-17T22:44:21.642Z,6.57
2022-09-17T22:46:51.635Z,8.77
2022-09-17T22:49:20.496Z,5.40
2022-09-17T22:51:49.642Z,4.80
2022-09-17T22:54:19.430Z,4.33
2022-09-17T22:56:49.436Z,3.33
2022-09-17T22:59:19.024Z,4.80
2022-09-17T23:01:48.031Z,4.23
2022-09-17T23:04:16.242Z,2.97
2022-09-17T23:06:44.824Z,5.10
2022-09-17T23:09:14.770Z,4.97
2022-09-17T23:11:43.412Z,5.97
2022-09-17T23:14:14.575Z,4.73
2022-09-17T23:16:45.716Z,5.03
2022-09-17T23:19:18.064Z,3.20
2022-09-17T23:21:46.602Z,3.63
2022-09-17T23:24:18.539Z,4.53
2022-09-17T23:26:46.687Z,3.93
2022-09-17T23:29:16.782Z,3.70
2022-09-17T23:31:45.504Z,4.13
2022-09-17T23:34:13.913Z,3.83
2022-09-17T23:36:42.007Z,2.87
2022-09-17T23:39:12.802Z,4.13
2022-09-17T23:41:45.364Z,3.80
2022-09-17T23:44:16.121Z,3.57
2022-09-17T23:46:46.962Z,3.53
2022-09-17T23:49:16.169Z,4.43
2022-09-17T23:51:44.585Z,3.47
2022-09-17T23:54:12.985Z,5.00
2022-09-17T23:56:41.492Z,3.40
2022-09-17T23:59:11.511Z,4.50
